sensor_id;sensor_type;location;lat;lon;timestamp;P1;durP1;ratioP1;P2;durP2;ratioP2
45210;SDS011;30952;50.102;8.584;2022-10-16T00:03:42;1.0;;;0.9;;
45210;SDS011;30952;50.102;8.584;2022-10-16T00:08:42;1.5;;;0.8;;
45210;SDS011;30952;50.102;8.584;2022-10-16T00:13:43;1.5;;;0.8;;
45210;SDS011;30952;50.102;8.584;2022-10-16T00:18:42;0.6;;;0.6;;
45210;SDS011;30952;50.102;8.584;2022-10-16T00:23:42;1.4;;;0.8;;
45210;SDS011;30952;50.102;8.584;2022-10-16T00:28:44;1.4;;;0.8;;
45210;SDS011;30952;50.102;8.584;2022-10-16T00:33:43;1.0;;;0.7;;
45210;SDS011;30952;50.102;8.584;2022-10-16T00:38:44;4.4;;;3.0;;
45210;SDS011;30952;50.102;8.584;2022-10-16T00:43:45;14.2;;;11.0;;
45210;SDS011;30952;50.102;8.584;2022-10-16T00:48:45;18.1;;;14.5;;
45210;SDS011;30952;50.102;8.584;2022-10-16T00:53:45;15.6;;;10.6;;
45210;SDS011;30952;50.102;8.584;2022-10-16T00:58:45;13.0;;;9.1;;
45210;SDS011;30952;50.102;8.584;2022-10-16T01:03:46;11.4;;;6.2;;
45210;SDS011;30952;50.102;8.584;2022-10-16T01:08:49;7.1;;;5.4;;
45210;SDS011;30952;50.102;8.584;2022-10-16T01:13:48;6.9;;;5.1;;
45210;SDS011;30952;50.102;8.584;2022-10-16T01:18:49;5.5;;;4.6;;
45210;SDS011;30952;50.102;8.584;2022-10-16T01:23:48;8.6;;;3.9;;
45210;SDS011;30952;50.102;8.584;2022-10-16T01:28:49;5.2;;;4.2;;
45210;SDS011;30952;50.102;8.584;2022-10-16T01:33:51;8.2;;;3.9;;
45210;SDS011;30952;50.102;8.584;2022-10-16T01:38:48;4.4;;;3.6;;
45210;SDS011;30952;50.102;8.584;2022-10-16T01:43:48;4.7;;;3.8;;
45210;SDS011;30952;50.102;8.584;2022-10-16T01:48:47;4.1;;;3.2;;
45210;SDS011;30952;50.102;8.584;2022-10-16T01:53:48;3.8;;;3.2;;
45210;SDS011;30952;50.102;8.584;2022-10-16T01:58:49;3.8;;;3.1;;
45210;SDS011;30952;50.102;8.584;2022-10-16T02:03:49;4.5;;;2.9;;
45210;SDS011;30952;50.102;8.584;2022-10-16T02:08:48;4.0;;;3.0;;
45210;SDS011;30952;50.102;8.584;2022-10-16T02:13:50;6.7;;;2.9;;
45210;SDS011;30952;50.102;8.584;2022-10-16T02:18:48;3.7;;;2.8;;
45210;SDS011;30952;50.102;8.584;2022-10-16T02:23:50;4.4;;;2.9;;
45210;SDS011;30952;50.102;8.584;2022-10-16T02:28:51;4.1;;;3.2;;
45210;SDS011;30952;50.102;8.584;2022-10-16T02:33:49;3.2;;;2.7;;
45210;SDS011;30952;50.102;8.584;2022-10-16T02:38:50;3.2;;;2.6;;
45210;SDS011;30952;50.102;8.584;2022-10-16T02:43:51;3.7;;;2.6;;
45210;SDS011;30952;50.102;8.584;2022-10-16T02:48:50;3.5;;;2.6;;
45210;SDS011;30952;50.102;8.584;2022-10-16T02:53:50;6.2;;;2.3;;
45210;SDS011;30952;50.102;8.584;2022-10-16T02:58:51;2.8;;;2.0;;
45210;SDS011;30952;50.102;8.584;2022-10-16T03:03:50;3.3;;;2.2;;
45210;SDS011;30952;50.102;8.584;2022-10-16T03:08:50;4.3;;;2.3;;
45210;SDS011;30952;50.102;8.584;2022-10-16T03:13:51;2.8;;;2.1;;
45210;SDS011;30952;50.102;8.584;2022-10-16T03:18:51;2.3;;;2.0;;
45210;SDS011;30952;50.102;8.584;2022-10-16T03:23:51;3.0;;;2.1;;
45210;SDS011;30952;50.102;8.584;2022-10-16T03:28:51;4.1;;;2.1;;
45210;SDS011;30952;50.102;8.584;2022-10-16T03:33:52;2.0;;;1.8;;
45210;SDS011;30952;50.102;8.584;2022-10-16T03:38:52;2.4;;;1.8;;
45210;SDS011;30952;50.102;8.584;2022-10-16T03:43:52;2.7;;;1.8;;
45210;SDS011;30952;50.102;8.584;2022-10-16T03:48:53;3.0;;;2.0;;
45210;SDS011;30952;50.102;8.584;2022-10-16T03:53:52;2.5;;;2.0;;
45210;SDS011;30952;50.102;8.584;2022-10-16T03:58:52;2.4;;;1.8;;
45210;SDS011;30952;50.102;8.584;2022-10-16T04:03:53;2.2;;;1.7;;
45210;SDS011;30952;50.102;8.584;2022-10-16T04:08:53;2.6;;;1.6;;
45210;SDS011;30952;50.102;8.584;2022-10-16T04:13:53;2.3;;;1.7;;
45210;SDS011;30952;50.102;8.584;2022-10-16T04:18:54;2.0;;;1.7;;
45210;SDS011;30952;50.102;8.584;2022-10-16T04:23:54;2.1;;;1.7;;
45210;SDS011;30952;50.102;8.584;2022-10-16T04:28:53;2.7;;;1.4;;
45210;SDS011;30952;50.102;8.584;2022-10-16T04:33:53;2.3;;;1.4;;
45210;SDS011;30952;50.102;8.584;2022-10-16T04:38:53;1.8;;;1.2;;
45210;SDS011;30952;50.102;8.584;2022-10-16T04:43:53;2.2;;;1.5;;
45210;SDS011;30952;50.102;8.584;2022-10-16T04:48:54;4.4;;;1.4;;
45210;SDS011;30952;50.102;8.584;2022-10-16T04:53:55;1.8;;;1.4;;
45210;SDS011;30952;50.102;8.584;2022-10-16T04:58:56;2.4;;;1.2;;
45210;SDS011;30952;50.102;8.584;2022-10-16T05:03:55;1.5;;;1.3;;
45210;SDS011;30952;50.102;8.584;2022-10-16T05:08:55;2.1;;;1.3;;
45210;SDS011;30952;50.102;8.584;2022-10-16T05:13:55;1.7;;;1.1;;
45210;SDS011;30952;50.102;8.584;2022-10-16T05:18:55;1.6;;;1.2;;
45210;SDS011;30952;50.102;8.584;2022-10-16T05:23:55;2.6;;;1.5;;
45210;SDS011;30952;50.102;8.584;2022-10-16T05:28:56;1.4;;;1.1;;
45210;SDS011;30952;50.102;8.584;2022-10-16T05:33:58;1.4;;;1.3;;
45210;SDS011;30952;50.102;8.584;2022-10-16T05:38:58;2.1;;;1.0;;
45210;SDS011;30952;50.102;8.584;2022-10-16T05:43:59;2.1;;;1.4;;
45210;SDS011;30952;50.102;8.584;2022-10-16T05:48:59;1.8;;;1.4;;
45210;SDS011;30952;50.102;8.584;2022-10-16T05:53:59;3.7;;;1.5;;
45210;SDS011;30952;50.102;8.584;2022-10-16T05:59:00;2.1;;;0.9;;
45210;SDS011;30952;50.102;8.584;2022-10-16T06:04:01;1.7;;;1.3;;
45210;SDS011;30952;50.102;8.584;2022-10-16T06:09:01;0.8;;;0.8;;
45210;SDS011;30952;50.102;8.584;2022-10-16T06:14:01;1.6;;;1.0;;
45210;SDS011;30952;50.102;8.584;2022-10-16T06:19:02;1.6;;;1.0;;
45210;SDS011;30952;50.102;8.584;2022-10-16T06:24:01;1.3;;;0.9;;
45210;SDS011;30952;50.102;8.584;2022-10-16T06:29:01;1.1;;;1.0;;
45210;SDS011;30952;50.102;8.584;2022-10-16T06:34:01;1.2;;;1.0;;
45210;SDS011;30952;50.102;8.584;2022-10-16T06:39:01;1.1;;;0.9;;
45210;SDS011;30952;50.102;8.584;2022-10-16T06:44:05;0.9;;;0.7;;
45210;SDS011;30952;50.102;8.584;2022-10-16T06:49:01;1.6;;;0.9;;
45210;SDS011;30952;50.102;8.584;2022-10-16T06:54:01;1.2;;;1.1;;
45210;SDS011;30952;50.102;8.584;2022-10-16T06:59:01;0.8;;;0.8;;
45210;SDS011;30952;50.102;8.584;2022-10-16T07:04:02;2.0;;;1.0;;
45210;SDS011;30952;50.102;8.584;2022-10-16T07:09:03;1.5;;;0.9;;
45210;SDS011;30952;50.102;8.584;2022-10-16T07:14:02;1.0;;;0.8;;
45210;SDS011;30952;50.102;8.584;2022-10-16T07:19:02;0.9;;;0.6;;
45210;SDS011;30952;50.102;8.584;2022-10-16T07:24:03;0.8;;;0.7;;
45210;SDS011;30952;50.102;8.584;2022-10-16T07:29:03;0.9;;;0.7;;
45210;SDS011;30952;50.102;8.584;2022-10-16T07:34:03;1.3;;;0.8;;
45210;SDS011;30952;50.102;8.584;2022-10-16T07:39:02;1.1;;;0.7;;
45210;SDS011;30952;50.102;8.584;2022-10-16T07:44:02;0.7;;;0.6;;
45210;SDS011;30952;50.102;8.584;2022-10-16T07:49:02;0.7;;;0.7;;
45210;SDS011;30952;50.102;8.584;2022-10-16T07:54:02;0.9;;;0.8;;
45210;SDS011;30952;50.102;8.584;2022-10-16T07:59:02;1.2;;;1.0;;
45210;SDS011;30952;50.102;8.584;2022-10-16T08:04:03;1.4;;;0.7;;
45210;SDS011;30952;50.102;8.584;2022-10-16T08:09:04;0.8;;;0.6;;
45210;SDS011;30952;50.102;8.584;2022-10-16T08:14:04;0.9;;;0.6;;
45210;SDS011;30952;50.102;8.584;2022-10-16T08:19:04;0.8;;;0.6;;
45210;SDS011;30952;50.102;8.584;2022-10-16T08:24:04;0.6;;;0.6;;
45210;SDS011;30952;50.102;8.584;2022-10-16T08:29:04;5.1;;;0.8;;
45210;SDS011;30952;50.102;8.584;2022-10-16T08:34:04;0.7;;;0.6;;
45210;SDS011;30952;50.102;8.584;2022-10-16T08:39:05;1.0;;;0.6;;
45210;SDS011;30952;50.102;8.584;2022-10-16T08:44:19;1.1;;;0.7;;
